Templeville, Maryland
Current Conditions -  °F | °C
As of 9:58 PM on Monday 22 Dec 2014 (Local Time) from KDOV Reporting Station
Light Rain Light Rain  
Wind Chill: 37°   Ceiling: 1300
Heat Index: 42°   Visibility: 7mi
Dew Point: 42°   Wind: 7mph
Humidity: 100%   Direction: 330°NNW
Pressure: 30.12"   Gusts: NA
Location:  39.14°N, 75.77°W
Report Text: KDOV 230258Z AUTO 33006KT 7SM -RA BKN013 BKN043 OVC055 06/06 A3012 RMK AO2 UPB0231E0233RAB0230 CIG 013V055 BKN013 V SCT SLP203 P0001 60002 T00550055 55004
Loading
Personal Weather Stations






























Interactive Weather Map New forecast layout! Learn more

10-Day Weather Forecast

Advertisements
Track Severe Weather on mobile